Time;durP1;ratioP1;P1;durP2;ratioP2;P2;SDS_P1;SDS_P2;PMS_P1;PMS_P2;Temp;Humidity;BMP_temperature;BMP_pressure;BME280_temperature;BME280_humidity;BME280_pressure;Samples;Min_cycle;Max_cycle;Signal;HPM_P1;HPM_P2
2021/03/29 00:00:12;;;;;;;16.02;8.60;;;;;;;-1.51;71.67;97538.47;5015224;28;20053;-56
2021/03/29 00:02:40;;;;;;;17.55;8.52;;;;;;;-1.51;71.49;97532.47;5034220;28;20056;-56
2021/03/29 00:05:09;;;;;;;18.67;9.63;;;;;;;-1.50;71.30;97537.50;5006761;28;20056;-56
2021/03/29 00:07:37;;;;;;;21.10;9.73;;;;;;;-1.48;71.12;97545.97;5007979;28;20045;-57
2021/03/29 00:10:07;;;;;;;18.75;9.38;;;;;;;-1.47;71.73;97539.78;5010368;28;20064;-57
2021/03/29 00:12:37;;;;;;;14.13;8.75;;;;;;;-1.49;71.40;97543.50;5016972;28;20068;-57
2021/03/29 00:15:06;;;;;;;18.35;8.75;;;;;;;-1.55;71.52;97537.94;5017469;28;20066;-56
2021/03/29 00:17:35;;;;;;;11.70;7.85;;;;;;;-1.55;71.76;97543.09;5028807;28;20046;-57
2021/03/29 00:20:08;;;;;;;16.58;9.60;;;;;;;-1.55;71.69;97543.09;5009679;28;20053;-57
2021/03/29 00:22:37;;;;;;;19.38;9.75;;;;;;;-1.56;71.31;97544.06;5031280;28;20038;-56
2021/03/29 00:25:06;;;;;;;16.80;10.15;;;;;;;-1.53;71.83;97549.88;5028033;28;20057;-56
2021/03/29 00:27:33;;;;;;;18.90;10.15;;;;;;;-1.54;71.02;97543.91;5013286;28;20695;-57
2021/03/29 00:30:01;;;;;;;18.67;11.48;;;;;;;-1.56;71.14;97551.81;5018580;28;20041;-57
2021/03/29 00:32:29;;;;;;;15.45;11.13;;;;;;;-1.61;71.44;97548.81;5042442;28;20054;-58
2021/03/29 00:34:57;;;;;;;17.33;12.40;;;;;;;-1.66;71.42;97545.00;5012802;28;20122;-56
2021/03/29 00:37:25;;;;;;;18.20;11.32;;;;;;;-1.69;72.01;97551.28;5014748;28;20073;-57
2021/03/29 00:39:53;;;;;;;21.98;10.55;;;;;;;-1.70;71.52;97554.81;5044938;28;20049;-56
2021/03/29 00:42:21;;;;;;;16.23;9.07;;;;;;;-1.72;72.11;97552.34;5020424;28;20597;-58
2021/03/29 00:44:48;;;;;;;16.00;9.60;;;;;;;-1.70;72.49;97552.25;5012241;28;20049;-56
2021/03/29 00:47:16;;;;;;;14.15;7.15;;;;;;;-1.72;71.90;97546.38;5012102;28;20079;-56
2021/03/29 00:49:43;;;;;;;11.38;8.38;;;;;;;-1.84;72.34;97552.66;5024666;28;20052;-58
2021/03/29 00:52:11;;;;;;;15.27;10.23;;;;;;;-2.03;74.07;97555.09;5003678;28;21780;-56
2021/03/29 00:54:40;;;;;;;14.13;8.50;;;;;;;-2.08;73.55;97556.44;5015415;28;20049;-56
2021/03/29 00:57:09;;;;;;;10.55;7.93;;;;;;;-2.08;73.61;97549.50;5012801;28;20045;-57
2021/03/29 00:59:37;;;;;;;14.18;8.40;;;;;;;-2.01;73.62;97547.19;5007813;28;20516;-57
2021/03/29 01:02:05;;;;;;;15.23;9.00;;;;;;;-1.98;73.21;97552.09;5012962;28;20053;-57
2021/03/29 01:04:33;;;;;;;13.77;8.57;;;;;;;-2.00;73.42;97543.66;4987719;28;20056;-56
2021/03/29 01:07:01;;;;;;;10.95;8.57;;;;;;;-1.99;73.42;97547.88;5026612;28;20045;-56
2021/03/29 01:09:30;;;;;;;12.13;7.78;;;;;;;-1.98;73.57;97546.91;5008875;28;20068;-56
2021/03/29 01:12:07;;;;;;;13.20;7.97;;;;;;;-2.02;73.44;97548.97;5027788;28;20417;-56
2021/03/29 01:14:44;;;;;;;16.65;9.10;;;;;;;-1.98;73.60;97546.13;5034626;28;20049;-61
2021/03/29 01:17:13;;;;;;;15.55;8.48;;;;;;;-1.98;73.61;97546.13;5022857;28;20061;-56
2021/03/29 01:19:59;;;;;;;13.88;8.13;;;;;;;-1.97;73.82;97540.81;5013452;28;20050;-57
2021/03/29 01:22:31;;;;;;;15.25;9.90;;;;;;;-1.95;73.88;97546.66;5031628;28;20405;-56
2021/03/29 01:25:04;;;;;;;15.90;10.32;;;;;;;-1.95;73.63;97545.81;5014713;28;20060;-56
2021/03/29 01:27:39;;;;;;;12.00;8.27;;;;;;;-1.95;73.66;97551.00;5008476;28;20060;-56
2021/03/29 01:30:09;;;;;;;20.75;10.10;;;;;;;-1.89;73.90;97553.06;5017137;28;20099;-57
2021/03/29 01:32:39;;;;;;;16.90;9.80;;;;;;;-1.92;73.37;97550.72;5014416;28;20355;-56
2021/03/29 01:35:18;;;;;;;17.45;9.18;;;;;;;-1.87;73.60;97557.13;5022056;28;20084;-56
2021/03/29 01:37:47;;;;;;;17.75;8.63;;;;;;;-1.86;73.21;97558.78;5022320;28;20049;-57
2021/03/29 01:40:18;;;;;;;14.63;8.80;;;;;;;-1.87;73.39;97564.91;5008345;28;20441;-56
2021/03/29 01:42:48;;;;;;;16.50;9.45;;;;;;;-1.87;73.47;97558.91;5023791;28;20513;-57
2021/03/29 01:45:18;;;;;;;14.43;9.05;;;;;;;-1.89;73.18;97566.78;5019980;28;20057;-56
2021/03/29 01:47:46;;;;;;;14.27;9.05;;;;;;;-1.92;73.19;97568.84;5033534;28;20053;-56
2021/03/29 01:50:17;;;;;;;13.68;8.82;;;;;;;-1.99;73.46;97562.59;5014325;28;20057;-57
2021/03/29 01:52:46;;;;;;;18.13;8.98;;;;;;;-2.08;73.75;97562.41;5011970;28;20049;-57
2021/03/29 01:55:14;;;;;;;14.55;7.45;;;;;;;-2.05;73.90;97567.34;5016817;28;20049;-56
2021/03/29 01:57:42;;;;;;;11.60;6.65;;;;;;;-2.01;73.53;97568.72;5045802;28;20046;-56
2021/03/29 02:00:15;;;;;;;9.75;6.70;;;;;;;-1.97;73.46;97569.25;5044727;28;20065;-57
2021/03/29 02:02:42;;;;;;;7.88;6.22;;;;;;;-1.98;73.71;97564.22;5030306;28;20046;-56
2021/03/29 02:05:15;;;;;;;7.13;5.80;;;;;;;-1.99;73.90;97565.97;5040792;28;20061;-56
2021/03/29 02:07:43;;;;;;;10.63;6.95;;;;;;;-2.05;73.68;97567.34;5029819;28;20601;-60
2021/03/29 02:10:13;;;;;;;11.30;6.82;;;;;;;-2.06;74.17;97570.88;5027206;28;20041;-57
2021/03/29 02:12:41;;;;;;;12.15;7.10;;;;;;;-2.04;73.95;97576.72;5026991;28;20049;-57
2021/03/29 02:15:14;;;;;;;8.70;5.80;;;;;;;-1.99;74.07;97570.34;5044279;28;20287;-56
2021/03/29 02:17:43;;;;;;;12.25;6.53;;;;;;;-1.96;74.18;97567.47;5024007;28;20060;-56
2021/03/29 02:20:16;;;;;;;11.15;7.22;;;;;;;-2.00;75.34;97564.34;5035245;28;20049;-56
2021/03/29 02:22:49;;;;;;;10.45;6.97;;;;;;;-1.96;75.06;97565.72;5006764;28;20056;-56
2021/03/29 02:25:18;;;;;;;10.88;6.53;;;;;;;-1.91;74.90;97563.53;5008864;28;20407;-57
2021/03/29 02:27:48;;;;;;;9.77;6.47;;;;;;;-1.82;74.95;97558.50;5009658;28;20045;-57
2021/03/29 02:30:20;;;;;;;16.80;7.25;;;;;;;-1.72;74.63;97564.50;5023581;28;20053;-57
2021/03/29 02:32:49;;;;;;;14.18;8.57;;;;;;;-1.65;74.20;97567.34;5049411;28;20049;-57
2021/03/29 02:35:18;;;;;;;14.10;8.65;;;;;;;-1.63;74.72;97566.25;5007160;28;20057;-57
2021/03/29 02:37:47;;;;;;;15.25;7.68;;;;;;;-1.57;74.02;97564.88;5010425;28;20054;-57
2021/03/29 02:40:22;;;;;;;18.63;8.57;;;;;;;-1.51;73.60;97560.91;5011917;28;20068;-57
2021/03/29 02:42:56;;;;;;;15.10;7.50;;;;;;;-1.48;74.07;97564.06;5003811;28;20050;-57
2021/03/29 02:45:27;;;;;;;15.25;8.70;;;;;;;-1.46;73.88;97544.03;5009029;28;20480;-57
2021/03/29 02:47:59;;;;;;;22.40;9.18;;;;;;;-1.34;73.15;97557.63;5029827;28;20057;-57
2021/03/29 02:50:29;;;;;;;21.35;8.52;;;;;;;-1.33;73.38;97546.34;5036362;28;20156;-57
2021/03/29 02:53:01;;;;;;;11.98;8.75;;;;;;;-1.29;72.95;97547.66;5046225;28;20069;-57
2021/03/29 02:55:29;;;;;;;16.88;7.82;;;;;;;-1.19;72.87;97544.25;5013431;28;20401;-57
2021/03/29 02:57:59;;;;;;;17.65;9.40;;;;;;;-1.14;72.76;97549.81;5013378;28;20045;-57
2021/03/29 03:00:27;;;;;;;15.43;8.32;;;;;;;-1.12;72.45;97553.91;5030719;28;20049;-57
2021/03/29 03:02:58;;;;;;;17.10;8.68;;;;;;;-1.13;72.17;97552.28;5025564;28;20509;-57
2021/03/29 03:05:34;;;;;;;16.00;8.45;;;;;;;-1.10;72.56;97551.19;5005897;28;20052;-57
2021/03/29 03:08:07;;;;;;;15.52;8.85;;;;;;;-1.11;72.91;97544.34;5015092;28;20056;-58
2021/03/29 03:10:35;;;;;;;16.67;10.98;;;;;;;-1.12;72.51;97550.50;5024732;28;20053;-57
2021/03/29 03:13:06;;;;;;;18.30;9.98;;;;;;;-1.07;72.52;97540.53;5005504;28;20065;-57
2021/03/29 03:15:35;;;;;;;23.20;8.73;;;;;;;-1.11;72.52;97550.34;5028169;28;20445;-57
2021/03/29 03:18:06;;;;;;;15.02;8.48;;;;;;;-1.12;72.03;97542.72;5023636;28;20052;-57
2021/03/29 03:20:35;;;;;;;20.10;8.95;;;;;;;-1.07;72.17;97545.72;5049997;28;20064;-57
2021/03/29 03:23:11;;;;;;;15.98;9.07;;;;;;;-1.03;71.97;97557.41;5016107;28;20041;-57
2021/03/29 03:25:47;;;;;;;16.02;8.88;;;;;;;-1.11;72.19;97539.19;5048637;28;20053;-57
2021/03/29 03:28:19;;;;;;;23.67;10.93;;;;;;;-1.00;72.05;97545.97;5013614;28;20730;-57
2021/03/29 03:30:54;;;;;;;18.10;10.45;;;;;;;-1.03;72.15;97536.69;5011503;28;20061;-57
2021/03/29 03:33:24;;;;;;;23.08;9.88;;;;;;;-0.99;72.28;97543.22;5012702;28;20697;-57
2021/03/29 03:35:53;;;;;;;19.10;9.75;;;;;;;-0.94;71.90;97535.03;5043856;28;20049;-57
2021/03/29 03:38:29;;;;;;;17.45;10.20;;;;;;;-0.94;72.55;97541.03;5049598;28;22657;-57
2021/03/29 03:40:59;;;;;;;23.80;10.48;;;;;;;-0.91;72.38;97554.66;5039895;28;20136;-57
2021/03/29 03:43:30;;;;;;;16.15;9.20;;;;;;;-0.81;72.34;97560.63;5008531;28;20041;-57
2021/03/29 03:46:23;;;;;;;15.02;8.88;;;;;;;-0.81;72.84;97550.25;5048805;28;20041;-57
2021/03/29 03:48:53;;;;;;;16.98;9.55;;;;;;;-0.78;72.33;97547.38;5016292;28;20068;-57
2021/03/29 03:51:25;;;;;;;21.30;9.90;;;;;;;-0.76;72.52;97553.22;5031658;28;20056;-57
2021/03/29 03:53:53;;;;;;;17.38;10.40;;;;;;;-0.75;71.98;97554.06;5031945;28;20033;-58
2021/03/29 03:56:21;;;;;;;18.70;9.35;;;;;;;-0.71;72.42;97553.63;5008684;28;20064;-58
2021/03/29 03:58:51;;;;;;;19.65;9.93;;;;;;;-0.67;72.60;97554.94;5014070;28;20049;-58
2021/03/29 04:01:19;;;;;;;16.20;11.38;;;;;;;-0.64;72.27;97554.66;5045848;28;20053;-57
2021/03/29 04:03:46;;;;;;;17.00;9.38;;;;;;;-0.58;71.40;97552.47;5013701;28;20052;-58
2021/03/29 04:06:13;;;;;;;18.05;11.10;;;;;;;-0.52;71.70;97552.72;5015138;28;20049;-58
2021/03/29 04:08:44;;;;;;;22.10;10.13;;;;;;;-0.42;71.46;97549.25;4999697;28;20137;-58
2021/03/29 04:11:12;;;;;;;14.15;9.43;;;;;;;-0.37;70.99;97553.03;5018685;28;20076;-63
2021/03/29 04:13:40;;;;;;;24.50;10.35;;;;;;;-0.38;70.81;97543.63;5013987;28;20053;-58
2021/03/29 04:16:08;;;;;;;14.93;9.65;;;;;;;-0.36;70.96;97552.09;5017274;28;20052;-58
2021/03/29 04:18:36;;;;;;;16.65;9.95;;;;;;;-0.38;71.47;97542.81;5012640;28;20386;-58
2021/03/29 04:21:05;;;;;;;20.27;10.50;;;;;;;-0.39;71.42;97552.38;5035730;28;20054;-58
2021/03/29 04:23:32;;;;;;;24.75;10.18;;;;;;;-0.41;71.63;97551.69;5006677;28;20045;-58
2021/03/29 04:26:05;;;;;;;14.23;10.43;;;;;;;-0.40;71.89;97557.72;5003388;28;20887;-57
2021/03/29 04:28:32;;;;;;;17.55;9.50;;;;;;;-0.40;71.07;97555.13;5011900;28;20053;-58
2021/03/29 04:30:59;;;;;;;12.90;9.18;;;;;;;-0.39;72.07;97567.13;5017116;28;20082;-58
2021/03/29 04:33:27;;;;;;;16.75;9.60;;;;;;;-0.37;71.13;97560.00;5006530;28;20038;-57
2021/03/29 04:35:55;;;;;;;19.25;10.68;;;;;;;-0.32;70.90;97557.78;5013210;28;20692;-57
2021/03/29 04:38:22;;;;;;;17.75;10.15;;;;;;;-0.27;70.97;97554.75;5050611;28;20045;-57
2021/03/29 04:40:50;;;;;;;18.27;9.90;;;;;;;-0.24;70.89;97554.47;5011491;28;20053;-57
2021/03/29 04:43:17;;;;;;;17.05;9.90;;;;;;;-0.25;71.02;97552.84;5010408;28;20520;-56
2021/03/29 04:45:45;;;;;;;17.27;11.40;;;;;;;-0.21;70.65;97560.16;5043114;28;20073;-57
2021/03/29 04:48:13;;;;;;;21.55;10.45;;;;;;;-0.19;70.81;97571.22;5015419;28;20405;-57
2021/03/29 04:50:40;;;;;;;21.40;11.82;;;;;;;-0.17;70.75;97564.13;5017185;28;20049;-57
2021/03/29 04:53:08;;;;;;;19.02;11.07;;;;;;;-0.19;71.13;97560.84;5015016;28;20054;-57
2021/03/29 04:55:36;;;;;;;24.55;10.20;;;;;;;-0.13;70.65;97567.22;5014405;28;20061;-58
2021/03/29 04:58:03;;;;;;;12.00;9.07;;;;;;;-0.06;70.50;97560.47;5031983;28;20041;-57
2021/03/29 05:00:32;;;;;;;15.77;9.50;;;;;;;-0.05;70.20;97567.28;5012662;28;20079;-56
2021/03/29 05:03:00;;;;;;;20.17;12.90;;;;;;;0.02;69.94;97577.09;5029122;28;20413;-56
2021/03/29 05:05:27;;;;;;;18.00;10.93;;;;;;;0.05;70.12;97567.22;5010509;28;20061;-57
2021/03/29 05:07:54;;;;;;;18.50;11.60;;;;;;;0.14;69.89;97573.31;5037441;28;20910;-57
2021/03/29 05:10:22;;;;;;;19.52;9.82;;;;;;;0.18;69.58;97577.25;5038641;28;20049;-57
2021/03/29 05:12:54;;;;;;;21.73;11.68;;;;;;;0.23;69.64;97569.03;5005243;28;20053;-57
2021/03/29 05:15:21;;;;;;;16.38;11.48;;;;;;;0.29;69.89;97571.84;5021320;28;20060;-57
2021/03/29 05:17:49;;;;;;;19.15;10.73;;;;;;;0.32;69.51;97562.94;5006593;28;20056;-57
2021/03/29 05:20:16;;;;;;;19.20;12.15;;;;;;;0.42;69.40;97573.25;5006652;28;21319;-57
2021/03/29 05:22:43;;;;;;;26.95;12.27;;;;;;;0.51;68.28;97577.53;4994862;28;20045;-57
2021/03/29 05:25:14;;;;;;;21.02;13.70;;;;;;;0.57;68.52;97576.13;5015327;28;20041;-57
2021/03/29 05:27:44;;;;;;;19.27;10.90;;;;;;;0.61;68.22;97573.06;5034284;28;20049;-58
2021/03/29 05:30:12;;;;;;;18.83;10.90;;;;;;;0.67;68.10;97568.25;5017209;28;20516;-57
2021/03/29 05:32:40;;;;;;;18.10;10.48;;;;;;;0.72;67.54;97568.59;5008080;28;20056;-58
2021/03/29 05:35:08;;;;;;;13.93;10.02;;;;;;;0.73;66.82;97576.25;5046748;28;20041;-57
2021/03/29 05:37:35;;;;;;;15.60;8.60;;;;;;;0.85;66.44;97578.59;5015752;28;20037;-57
2021/03/29 05:40:04;;;;;;;17.35;8.90;;;;;;;0.90;66.20;97577.16;5013888;28;20049;-57
2021/03/29 05:42:32;;;;;;;15.05;9.52;;;;;;;0.97;66.38;97574.78;5017589;28;20072;-57
2021/03/29 05:45:07;;;;;;;21.95;8.75;;;;;;;1.02;65.79;97580.31;5014114;28;20577;-57
2021/03/29 05:47:36;;;;;;;18.00;10.20;;;;;;;1.11;65.56;97581.19;5025005;28;20079;-57
2021/03/29 05:50:11;;;;;;;15.18;9.18;;;;;;;1.22;65.44;97580.09;5007691;28;20053;-57
2021/03/29 05:52:40;;;;;;;14.73;10.05;;;;;;;1.31;65.27;97581.78;5010618;28;20048;-57
2021/03/29 05:55:34;;;;;;;26.55;11.27;;;;;;;1.40;64.81;97577.44;4994537;28;20099;-57
2021/03/29 06:00:42;;;;;;;14.32;9.15;;;;;;;1.50;64.31;97579.88;4999777;28;20042;-57
2021/03/29 06:03:26;;;;;;;26.17;12.13;;;;;;;1.58;64.29;97581.72;5013247;28;20045;-57
2021/03/29 06:06:00;;;;;;;25.08;10.23;;;;;;;1.69;64.54;97581.41;5040932;28;20046;-56
2021/03/29 06:08:28;;;;;;;21.88;13.70;;;;;;;1.79;63.58;97587.31;5012980;28;20054;-56
2021/03/29 06:10:59;;;;;;;24.90;12.85;;;;;;;1.82;64.00;97592.19;5003718;28;20076;-56
2021/03/29 06:13:30;;;;;;;29.52;14.27;;;;;;;1.89;63.97;97588.97;5046494;28;20596;-57
2021/03/29 06:16:07;;;;;;;31.27;16.42;;;;;;;1.98;63.65;97591.41;5016155;28;20045;-56
2021/03/29 06:18:36;;;;;;;27.15;15.07;;;;;;;2.02;63.53;97589.34;5026877;28;21079;-56
2021/03/29 06:21:05;;;;;;;30.42;18.25;;;;;;;2.16;63.23;97598.31;5025490;28;20056;-57
2021/03/29 06:23:34;;;;;;;46.70;19.00;;;;;;;2.29;63.21;97597.81;5026691;28;20060;-56
2021/03/29 06:26:29;;;;;;;35.65;18.98;;;;;;;2.45;62.88;97599.66;5024194;28;20052;-57
2021/03/29 06:28:57;;;;;;;40.95;21.13;;;;;;;2.59;63.07;97598.97;5012114;28;21818;-56
2021/03/29 06:31:28;;;;;;;37.83;22.88;;;;;;;2.74;62.60;97608.75;5011467;28;20057;-56
2021/03/29 06:33:56;;;;;;;41.20;19.83;;;;;;;2.85;62.62;97610.22;5016032;28;20054;-57
2021/03/29 06:36:26;;;;;;;42.55;21.65;;;;;;;2.88;62.60;97615.13;5005670;28;20054;-57
2021/03/29 06:38:53;;;;;;;47.28;24.92;;;;;;;2.86;62.98;97606.63;5011212;28;20095;-57
2021/03/29 06:41:26;;;;;;;32.20;22.33;;;;;;;2.97;62.90;97611.50;4997909;28;20058;-58
2021/03/29 06:43:54;;;;;;;29.70;20.50;;;;;;;3.08;61.93;97618.16;5004553;28;20555;-55
2021/03/29 06:46:27;;;;;;;29.20;19.45;;;;;;;3.18;61.20;97613.59;5008775;28;20056;-57
2021/03/29 06:48:56;;;;;;;34.75;20.75;;;;;;;3.27;61.28;97624.81;5009093;28;20346;-56
2021/03/29 06:51:23;;;;;;;37.58;21.02;;;;;;;3.31;60.55;97620.91;5027597;28;20049;-55
2021/03/29 06:54:05;;;;;;;37.72;22.13;;;;;;;3.28;60.76;97608.19;5011134;28;20417;-56
2021/03/29 06:56:35;;;;;;;30.23;20.88;;;;;;;3.50;60.68;97611.06;5012230;28;20059;-56
2021/03/29 06:59:03;;;;;;;30.23;18.00;;;;;;;3.67;60.12;97612.63;5004513;28;20540;-56
2021/03/29 07:01:36;;;;;;;28.83;16.88;;;;;;;3.84;58.97;97618.59;5036043;28;20064;-57
2021/03/29 07:04:05;;;;;;;31.83;18.00;;;;;;;3.95;58.73;97614.78;5036997;28;20045;-57
2021/03/29 07:06:35;;;;;;;30.58;16.05;;;;;;;3.94;59.25;97610.56;5006581;28;21750;-57
2021/03/29 07:09:06;;;;;;;30.80;19.13;;;;;;;4.05;58.70;97595.47;5009858;28;20894;-57
2021/03/29 07:11:35;;;;;;;32.47;17.83;;;;;;;4.24;58.46;97602.88;5011789;28;20370;-57
2021/03/29 07:14:04;;;;;;;31.85;18.55;;;;;;;4.28;58.01;97608.56;5014124;28;20045;-58
2021/03/29 07:16:33;;;;;;;44.35;19.35;;;;;;;4.38;57.96;97603.94;5027703;28;20041;-58
2021/03/29 07:19:05;;;;;;;30.27;19.38;;;;;;;4.45;57.08;97601.44;5014367;28;20057;-58
2021/03/29 07:21:33;;;;;;;32.47;19.08;;;;;;;4.47;57.51;97612.53;5008359;28;20053;-55
2021/03/29 07:24:02;;;;;;;34.83;19.85;;;;;;;4.46;57.67;97606.47;5013758;28;20057;-57
2021/03/29 07:26:54;;;;;;;35.92;20.05;;;;;;;4.55;57.47;97599.38;5014772;28;20559;-56
2021/03/29 07:29:47;;;;;;;29.35;17.17;;;;;;;4.66;56.53;97606.03;5012771;28;20573;-57
2021/03/29 07:32:29;;;;;;;27.77;17.88;;;;;;;4.85;57.58;97594.25;5016910;28;20064;-56
2021/03/29 07:34:57;;;;;;;27.27;17.65;;;;;;;4.96;56.55;97593.00;5014478;28;20056;-57
2021/03/29 07:37:25;;;;;;;29.00;16.40;;;;;;;5.06;56.16;97598.78;5029370;28;20041;-57
2021/03/29 07:39:53;;;;;;;27.00;17.52;;;;;;;5.14;55.69;97597.09;5041099;28;20056;-57
2021/03/29 07:42:23;;;;;;;37.47;18.98;;;;;;;5.27;55.68;97599.06;5033759;28;20049;-57
2021/03/29 07:44:51;;;;;;;26.60;16.83;;;;;;;5.32;55.36;97600.16;5015014;28;20076;-57
2021/03/29 07:47:52;;;;;;;32.00;18.23;;;;;;;5.44;55.32;97600.53;5010619;28;20057;-57
2021/03/29 07:50:29;;;;;;;36.25;17.52;;;;;;;5.54;54.82;97598.44;5014450;28;20497;-56
2021/03/29 07:53:06;;;;;;;28.02;16.85;;;;;;;5.62;54.73;97597.53;5008571;28;20049;-57
2021/03/29 07:55:53;;;;;;;32.95;17.17;;;;;;;5.77;54.06;97597.53;5037874;28;20056;-56
2021/03/29 07:58:21;;;;;;;25.27;17.42;;;;;;;5.83;54.38;97601.22;5019414;28;20049;-56
2021/03/29 08:00:57;;;;;;;29.30;16.38;;;;;;;5.87;54.03;97602.47;5022975;28;20048;-56
2021/03/29 08:03:25;;;;;;;25.95;16.92;;;;;;;5.94;54.20;97607.78;5002173;28;20080;-59
2021/03/29 08:05:52;;;;;;;35.30;17.70;;;;;;;6.03;53.45;97606.72;5007225;28;20049;-57
2021/03/29 08:08:26;;;;;;;23.92;14.30;;;;;;;6.23;52.82;97600.88;5005028;28;20064;-57
2021/03/29 08:11:03;;;;;;;21.58;14.23;;;;;;;6.46;53.22;97598.88;5031992;28;20282;-57
2021/03/29 08:13:44;;;;;;;28.42;16.20;;;;;;;6.76;52.04;97601.38;5016829;28;20049;-56
2021/03/29 08:16:15;;;;;;;30.40;13.75;;;;;;;6.97;51.62;97604.16;5010781;28;20489;-57
2021/03/29 08:19:24;;;;;;;17.80;13.55;;;;;;;7.17;50.95;97607.72;5014702;28;20045;-57
2021/03/29 08:22:02;;;;;;;25.00;12.85;;;;;;;7.34;51.25;97612.69;5032020;28;20501;-57
2021/03/29 08:24:47;;;;;;;23.70;14.75;;;;;;;7.49;49.03;97609.94;5017256;28;20049;-56
2021/03/29 08:27:18;;;;;;;23.58;15.15;;;;;;;7.54;50.39;97610.19;5033145;28;20053;-56
2021/03/29 08:29:48;;;;;;;26.92;17.23;;;;;;;7.70;51.60;97601.94;5020201;28;20052;-57
2021/03/29 08:32:24;;;;;;;44.53;28.10;;;;;;;7.90;50.30;97608.28;5016871;28;20053;-57
2021/03/29 08:35:03;;;;;;;23.75;15.35;;;;;;;8.05;50.20;97605.53;5013580;28;20056;-56
2021/03/29 08:37:40;;;;;;;23.20;13.88;;;;;;;8.16;48.42;97599.72;5008394;28;20058;-57
2021/03/29 08:40:08;;;;;;;22.38;14.07;;;;;;;8.25;48.30;97602.94;5017150;28;20049;-57
2021/03/29 08:42:36;;;;;;;90.88;49.90;;;;;;;8.35;48.92;97606.03;5023928;28;20038;-57
2021/03/29 08:45:12;;;;;;;33.60;22.95;;;;;;;8.43;48.36;97605.03;4991953;28;20050;-56
2021/03/29 08:47:42;;;;;;;32.30;21.17;;;;;;;8.40;49.44;97608.84;5037401;28;20670;-57
2021/03/29 08:50:18;;;;;;;28.80;16.17;;;;;;;8.59;47.89;97594.13;5015218;28;20037;-57
2021/03/29 08:52:48;;;;;;;31.70;17.17;;;;;;;8.61;48.47;97601.84;5011164;28;20490;-57
2021/03/29 08:55:19;;;;;;;28.95;20.75;;;;;;;8.76;48.12;97594.56;5015096;28;20041;-57
2021/03/29 08:57:54;;;;;;;30.67;18.45;;;;;;;8.75;47.94;97598.19;5008108;28;20061;-58
2021/03/29 09:00:30;;;;;;;30.02;18.27;;;;;;;8.81;47.67;97595.78;5011115;28;20069;-57
2021/03/29 09:02:57;;;;;;;28.90;17.40;;;;;;;8.75;47.84;97594.75;5005815;28;20125;-56
2021/03/29 09:05:26;;;;;;;29.40;16.85;;;;;;;8.73;47.96;97594.16;5043734;28;20046;-57
2021/03/29 09:07:54;;;;;;;26.00;17.05;;;;;;;8.76;47.85;97593.75;5036240;28;20065;-57
2021/03/29 09:10:24;;;;;;;27.95;16.88;;;;;;;8.75;47.83;97592.13;4994002;28;20049;-57
2021/03/29 09:12:53;;;;;;;32.53;18.20;;;;;;;8.81;47.39;97590.50;5010065;28;20049;-57
2021/03/29 09:15:21;;;;;;;37.38;19.08;;;;;;;8.77;46.56;97590.13;5016896;28;20050;-56
2021/03/29 09:18:10;;;;;;;26.13;16.75;;;;;;;8.76;47.06;97588.50;5046923;28;20271;-57
2021/03/29 09:20:39;;;;;;;33.10;17.20;;;;;;;8.92;47.32;97590.69;5027599;28;20045;-57
2021/03/29 09:23:08;;;;;;;30.02;18.52;;;;;;;8.97;47.26;97584.84;5014251;28;20057;-58
2021/03/29 09:25:40;;;;;;;26.85;17.45;;;;;;;9.07;46.89;97587.03;5049205;28;20053;-58
2021/03/29 09:28:43;;;;;;;39.00;20.73;;;;;;;9.15;47.38;97581.59;5014699;28;20045;-57
2021/03/29 09:31:24;;;;;;;30.92;19.15;;;;;;;9.28;46.76;97574.69;5011872;28;20060;-57
2021/03/29 09:33:53;;;;;;;26.77;15.15;;;;;;;9.38;46.57;97580.31;5009764;28;20057;-57
2021/03/29 09:36:25;;;;;;;21.02;14.85;;;;;;;9.43;46.00;97582.34;5013441;28;20064;-56
2021/03/29 09:38:56;;;;;;;22.73;14.52;;;;;;;9.39;45.93;97582.75;5028706;28;20053;-58
2021/03/29 09:41:31;;;;;;;26.73;13.60;;;;;;;9.51;46.17;97579.47;5012834;28;20053;-57
2021/03/29 09:44:06;;;;;;;27.65;16.55;;;;;;;9.60;46.07;97580.06;5020803;28;20072;-59
2021/03/29 09:46:35;;;;;;;23.33;15.02;;;;;;;9.72;46.08;97578.38;5010673;28;20049;-58
2021/03/29 09:49:07;;;;;;;22.52;14.75;;;;;;;9.81;46.60;97569.22;5016916;28;20409;-57
2021/03/29 09:51:36;;;;;;;30.55;15.35;;;;;;;9.91;46.14;97562.72;5012733;28;21015;-59
2021/03/29 09:54:26;;;;;;;23.65;15.90;;;;;;;10.07;45.38;97564.03;5014676;28;20052;-57
2021/03/29 09:56:56;;;;;;;22.33;15.82;;;;;;;10.12;45.44;97553.66;5014369;28;20037;-58
2021/03/29 09:59:35;;;;;;;22.20;16.48;;;;;;;10.22;45.06;97563.75;5045843;28;20484;-64
2021/03/29 10:02:14;;;;;;;24.60;15.48;;;;;;;10.31;44.61;97559.81;5044445;28;20049;-57
2021/03/29 10:04:44;;;;;;;24.38;15.75;;;;;;;10.45;44.22;97555.31;5028013;28;20050;-59
2021/03/29 10:07:16;;;;;;;25.98;16.20;;;;;;;10.59;44.25;97545.47;5006694;28;20050;-58
2021/03/29 10:09:47;;;;;;;24.02;14.23;;;;;;;10.75;44.36;97546.75;5043042;28;20056;-56
2021/03/29 10:12:25;;;;;;;20.08;13.35;;;;;;;10.94;43.90;97536.25;5007389;28;20057;-57
2021/03/29 10:15:05;;;;;;;25.80;15.70;;;;;;;11.06;43.60;97539.78;5002686;28;20045;-57
2021/03/29 10:17:33;;;;;;;25.58;14.90;;;;;;;11.15;43.01;97535.81;5003065;28;20057;-57
2021/03/29 10:20:09;;;;;;;25.60;12.73;;;;;;;11.22;43.08;97536.53;5020521;28;20049;-58
2021/03/29 10:22:37;;;;;;;18.40;12.30;;;;;;;11.35;43.32;97532.16;5017738;28;20058;-56
2021/03/29 10:25:21;;;;;;;18.77;13.35;;;;;;;11.45;42.40;97523.72;5031977;28;20053;-61
2021/03/29 10:27:55;;;;;;;18.10;12.02;;;;;;;11.51;42.01;97517.53;5019091;28;20052;-56
2021/03/29 10:30:26;;;;;;;21.33;13.25;;;;;;;11.53;42.38;97518.94;5008731;28;20054;-57
2021/03/29 10:33:04;;;;;;;19.17;12.52;;;;;;;11.64;42.21;97514.72;5001320;28;20080;-58
2021/03/29 10:35:32;;;;;;;19.98;12.80;;;;;;;11.84;42.48;97516.31;5006347;28;20052;-57
2021/03/29 10:38:02;;;;;;;23.65;12.73;;;;;;;12.01;41.05;97511.22;5015141;28;21571;-57
2021/03/29 10:40:30;;;;;;;23.40;11.63;;;;;;;12.18;41.38;97505.31;4999790;28;20038;-58
2021/03/29 10:42:57;;;;;;;19.02;11.32;;;;;;;12.27;41.24;97504.72;5032132;28;20053;-58
2021/03/29 10:45:24;;;;;;;13.57;9.43;;;;;;;12.42;40.72;97506.16;5041779;28;20045;-58
2021/03/29 10:47:51;;;;;;;19.35;9.90;;;;;;;12.48;39.84;97494.66;5015993;28;20053;-57
2021/03/29 10:50:21;;;;;;;15.23;8.65;;;;;;;12.54;40.12;97491.09;5029344;28;20042;-57
2021/03/29 10:52:48;;;;;;;14.20;9.57;;;;;;;12.64;40.45;97487.88;5047794;28;20845;-58
2021/03/29 10:55:16;;;;;;;16.63;10.63;;;;;;;12.82;40.43;97491.44;5046725;28;20460;-58
2021/03/29 10:57:43;;;;;;;14.32;8.80;;;;;;;13.01;39.36;97489.47;5044658;28;20052;-59
2021/03/29 11:00:11;;;;;;;22.33;10.27;;;;;;;13.11;38.40;97491.53;5029287;28;20041;-58
2021/03/29 11:02:39;;;;;;;12.90;8.65;;;;;;;13.23;38.70;97479.84;5019107;28;20053;-58
2021/03/29 11:05:07;;;;;;;17.38;7.03;;;;;;;13.43;38.66;97476.06;5009257;28;20038;-59
2021/03/29 11:07:35;;;;;;;8.07;5.47;;;;;;;13.66;37.63;97483.09;5051037;28;20393;-58
2021/03/29 11:10:03;;;;;;;9.27;5.30;;;;;;;13.95;37.84;97490.28;5019796;28;20041;-58
2021/03/29 11:12:30;;;;;;;6.97;3.22;;;;;;;14.16;35.59;97475.47;5028534;28;20913;-58
2021/03/29 11:14:58;;;;;;;7.45;3.67;;;;;;;14.25;34.62;97475.91;5015956;28;20060;-58
2021/03/29 11:17:28;;;;;;;7.75;3.47;;;;;;;14.38;34.87;97472.94;5046260;28;20060;-58
2021/03/29 11:19:55;;;;;;;7.35;2.80;;;;;;;14.52;34.32;97473.44;5031159;28;20057;-59
2021/03/29 11:22:22;;;;;;;6.45;2.72;;;;;;;14.59;34.22;97466.09;5017693;28;20065;-58
2021/03/29 11:24:50;;;;;;;4.80;2.90;;;;;;;14.60;33.65;97459.72;5024043;28;20076;-59
2021/03/29 11:27:17;;;;;;;9.65;4.07;;;;;;;14.65;34.23;97453.69;5031047;28;20052;-59
2021/03/29 11:29:44;;;;;;;9.55;3.83;;;;;;;14.54;34.52;97442.09;5028497;28;20056;-59
2021/03/29 11:32:12;;;;;;;7.47;3.65;;;;;;;14.55;33.40;97434.94;5044185;28;21039;-58
2021/03/29 11:34:39;;;;;;;6.65;3.05;;;;;;;14.71;34.23;97443.97;5035735;28;20061;-58
2021/03/29 11:37:07;;;;;;;8.55;2.83;;;;;;;14.75;34.07;97447.75;5045789;28;20058;-58
2021/03/29 11:39:34;;;;;;;5.60;2.70;;;;;;;14.61;34.17;97439.28;5046869;28;20057;-58
2021/03/29 11:42:02;;;;;;;10.95;3.70;;;;;;;14.70;34.16;97440.53;5047428;28;20056;-58
2021/03/29 11:44:30;;;;;;;7.15;3.50;;;;;;;14.57;33.41;97444.28;5049633;28;20424;-59